sensor_id;sensor_type;location;lat;lon;timestamp;temperature;humidity
55004;DHT22;40900;52.710;6.438;2023-05-17T00:02:18;10.70;99.90
55004;DHT22;40900;52.710;6.438;2023-05-17T00:04:44;10.70;99.90
55004;DHT22;40900;52.710;6.438;2023-05-17T00:07:10;10.70;99.90
55004;DHT22;40900;52.710;6.438;2023-05-17T00:09:36;10.60;99.90
55004;DHT22;40900;52.710;6.438;2023-05-17T00:12:02;10.60;99.90
55004;DHT22;40900;52.710;6.438;2023-05-17T00:14:27;10.60;99.90
55004;DHT22;40900;52.710;6.438;2023-05-17T00:16:53;10.60;99.90
55004;DHT22;40900;52.710;6.438;2023-05-17T00:19:19;10.60;99.90
55004;DHT22;40900;52.710;6.438;2023-05-17T00:21:44;10.50;99.90
55004;DHT22;40900;52.710;6.438;2023-05-17T00:24:10;10.60;99.90
55004;DHT22;40900;52.710;6.438;2023-05-17T00:26:36;10.50;99.90
55004;DHT22;40900;52.710;6.438;2023-05-17T00:29:02;10.50;99.90
55004;DHT22;40900;52.710;6.438;2023-05-17T00:31:28;10.50;99.90
55004;DHT22;40900;52.710;6.438;2023-05-17T00:33:53;10.50;99.90
55004;DHT22;40900;52.710;6.438;2023-05-17T00:36:19;10.40;99.90
55004;DHT22;40900;52.710;6.438;2023-05-17T00:38:45;10.40;99.90
55004;DHT22;40900;52.710;6.438;2023-05-17T00:41:11;10.30;99.90
55004;DHT22;40900;52.710;6.438;2023-05-17T00:43:38;10.30;99.90
55004;DHT22;40900;52.710;6.438;2023-05-17T00:46:03;10.30;99.90
55004;DHT22;40900;52.710;6.438;2023-05-17T00:48:29;10.20;99.90
55004;DHT22;40900;52.710;6.438;2023-05-17T00:50:55;10.20;99.90
55004;DHT22;40900;52.710;6.438;2023-05-17T00:53:23;10.20;99.90
55004;DHT22;40900;52.710;6.438;2023-05-17T00:55:49;10.20;99.90
55004;DHT22;40900;52.710;6.438;2023-05-17T00:58:15;10.20;99.90
55004;DHT22;40900;52.710;6.438;2023-05-17T01:00:41;10.20;99.90
55004;DHT22;40900;52.710;6.438;2023-05-17T01:03:07;10.20;99.90
55004;DHT22;40900;52.710;6.438;2023-05-17T01:05:33;10.10;99.90
55004;DHT22;40900;52.710;6.438;2023-05-17T01:07:59;10.10;99.90
55004;DHT22;40900;52.710;6.438;2023-05-17T01:10:46;10.10;99.90
55004;DHT22;40900;52.710;6.438;2023-05-17T01:13:22;10.00;99.90
55004;DHT22;40900;52.710;6.438;2023-05-17T01:16:24;10.00;99.90
55004;DHT22;40900;52.710;6.438;2023-05-17T01:18:58;9.70;99.90
55004;DHT22;40900;52.710;6.438;2023-05-17T01:21:50;9.80;99.90
55004;DHT22;40900;52.710;6.438;2023-05-17T01:24:48;9.80;99.90
55004;DHT22;40900;52.710;6.438;2023-05-17T01:27:15;9.70;99.90
55004;DHT22;40900;52.710;6.438;2023-05-17T01:29:42;9.60;99.90
55004;DHT22;40900;52.710;6.438;2023-05-17T01:32:09;9.50;99.90
55004;DHT22;40900;52.710;6.438;2023-05-17T01:34:35;9.50;99.90
55004;DHT22;40900;52.710;6.438;2023-05-17T01:37:01;9.50;99.90
55004;DHT22;40900;52.710;6.438;2023-05-17T01:39:27;9.40;99.90
55004;DHT22;40900;52.710;6.438;2023-05-17T01:42:00;9.30;99.90
55004;DHT22;40900;52.710;6.438;2023-05-17T01:44:39;9.30;99.90
55004;DHT22;40900;52.710;6.438;2023-05-17T01:47:23;9.30;99.90
55004;DHT22;40900;52.710;6.438;2023-05-17T01:49:53;9.30;99.90
55004;DHT22;40900;52.710;6.438;2023-05-17T01:52:34;9.20;99.90
55004;DHT22;40900;52.710;6.438;2023-05-17T01:55:04;9.20;99.90
55004;DHT22;40900;52.710;6.438;2023-05-17T01:57:33;9.20;99.90
55004;DHT22;40900;52.710;6.438;2023-05-17T02:00:04;9.20;99.90
55004;DHT22;40900;52.710;6.438;2023-05-17T02:02:30;9.10;99.90
55004;DHT22;40900;52.710;6.438;2023-05-17T02:04:56;9.10;99.90
55004;DHT22;40900;52.710;6.438;2023-05-17T02:07:23;9.00;99.90
55004;DHT22;40900;52.710;6.438;2023-05-17T02:09:48;9.00;99.90
55004;DHT22;40900;52.710;6.438;2023-05-17T02:12:14;9.00;99.90
55004;DHT22;40900;52.710;6.438;2023-05-17T02:14:40;9.00;99.90
55004;DHT22;40900;52.710;6.438;2023-05-17T02:17:06;9.00;99.90
55004;DHT22;40900;52.710;6.438;2023-05-17T02:19:31;9.00;99.90
55004;DHT22;40900;52.710;6.438;2023-05-17T02:21:57;9.00;99.90
55004;DHT22;40900;52.710;6.438;2023-05-17T02:24:23;8.90;99.90
55004;DHT22;40900;52.710;6.438;2023-05-17T02:26:49;9.00;99.90
55004;DHT22;40900;52.710;6.438;2023-05-17T02:29:15;9.00;99.90
55004;DHT22;40900;52.710;6.438;2023-05-17T02:31:40;9.00;99.90
55004;DHT22;40900;52.710;6.438;2023-05-17T02:34:06;9.00;99.90
55004;DHT22;40900;52.710;6.438;2023-05-17T02:36:32;8.90;99.90
55004;DHT22;40900;52.710;6.438;2023-05-17T02:39:00;8.90;99.90
55004;DHT22;40900;52.710;6.438;2023-05-17T02:41:26;8.90;99.90
55004;DHT22;40900;52.710;6.438;2023-05-17T02:43:52;8.90;99.90
55004;DHT22;40900;52.710;6.438;2023-05-17T02:46:17;8.90;99.90
55004;DHT22;40900;52.710;6.438;2023-05-17T02:48:43;8.90;99.90
55004;DHT22;40900;52.710;6.438;2023-05-17T02:51:09;8.90;99.90
55004;DHT22;40900;52.710;6.438;2023-05-17T02:53:35;8.80;99.90
55004;DHT22;40900;52.710;6.438;2023-05-17T02:56:01;8.80;99.90
55004;DHT22;40900;52.710;6.438;2023-05-17T02:58:26;8.80;99.90
55004;DHT22;40900;52.710;6.438;2023-05-17T03:00:52;8.80;99.90
55004;DHT22;40900;52.710;6.438;2023-05-17T03:03:18;8.70;99.90
55004;DHT22;40900;52.710;6.438;2023-05-17T03:05:43;8.70;99.90
55004;DHT22;40900;52.710;6.438;2023-05-17T03:08:09;8.70;99.90
55004;DHT22;40900;52.710;6.438;2023-05-17T03:10:35;8.70;99.90
55004;DHT22;40900;52.710;6.438;2023-05-17T03:13:00;8.70;99.90
55004;DHT22;40900;52.710;6.438;2023-05-17T03:15:26;8.60;99.90
55004;DHT22;40900;52.710;6.438;2023-05-17T03:17:57;8.60;99.90
55004;DHT22;40900;52.710;6.438;2023-05-17T03:20:23;8.60;99.90
55004;DHT22;40900;52.710;6.438;2023-05-17T03:22:48;8.60;99.90
55004;DHT22;40900;52.710;6.438;2023-05-17T03:25:14;8.60;99.90
55004;DHT22;40900;52.710;6.438;2023-05-17T03:27:40;8.60;99.90
55004;DHT22;40900;52.710;6.438;2023-05-17T03:30:06;8.60;99.90
55004;DHT22;40900;52.710;6.438;2023-05-17T03:32:32;8.60;99.90
55004;DHT22;40900;52.710;6.438;2023-05-17T03:34:58;8.60;99.90
55004;DHT22;40900;52.710;6.438;2023-05-17T03:37:24;8.60;99.90
55004;DHT22;40900;52.710;6.438;2023-05-17T03:39:50;8.60;99.90
55004;DHT22;40900;52.710;6.438;2023-05-17T03:42:15;8.50;99.90
55004;DHT22;40900;52.710;6.438;2023-05-17T03:44:41;8.50;99.90
55004;DHT22;40900;52.710;6.438;2023-05-17T03:47:07;8.50;99.90
55004;DHT22;40900;52.710;6.438;2023-05-17T03:49:33;8.50;99.90
55004;DHT22;40900;52.710;6.438;2023-05-17T03:51:58;8.50;99.90
55004;DHT22;40900;52.710;6.438;2023-05-17T03:54:24;8.50;99.90
55004;DHT22;40900;52.710;6.438;2023-05-17T03:56:50;8.40;99.90
55004;DHT22;40900;52.710;6.438;2023-05-17T03:59:16;8.50;99.90
55004;DHT22;40900;52.710;6.438;2023-05-17T04:01:42;8.50;99.90
55004;DHT22;40900;52.710;6.438;2023-05-17T04:04:08;8.40;99.90
55004;DHT22;40900;52.710;6.438;2023-05-17T04:06:34;8.50;99.90
55004;DHT22;40900;52.710;6.438;2023-05-17T04:09:00;8.40;99.90
55004;DHT22;40900;52.710;6.438;2023-05-17T04:11:26;8.40;99.90
55004;DHT22;40900;52.710;6.438;2023-05-17T04:13:53;8.30;99.90
55004;DHT22;40900;52.710;6.438;2023-05-17T04:16:19;8.30;99.90
55004;DHT22;40900;52.710;6.438;2023-05-17T04:18:45;8.20;99.90
55004;DHT22;40900;52.710;6.438;2023-05-17T04:21:11;8.30;99.90
55004;DHT22;40900;52.710;6.438;2023-05-17T04:23:37;8.30;99.90
55004;DHT22;40900;52.710;6.438;2023-05-17T04:26:03;8.30;99.90
55004;DHT22;40900;52.710;6.438;2023-05-17T04:28:30;8.30;99.90
55004;DHT22;40900;52.710;6.438;2023-05-17T04:30:57;8.30;99.90
55004;DHT22;40900;52.710;6.438;2023-05-17T04:33:23;8.30;99.90
55004;DHT22;40900;52.710;6.438;2023-05-17T04:35:49;8.40;99.90
55004;DHT22;40900;52.710;6.438;2023-05-17T04:38:15;8.50;99.90
55004;DHT22;40900;52.710;6.438;2023-05-17T04:40:41;8.50;99.90
55004;DHT22;40900;52.710;6.438;2023-05-17T04:43:07;8.60;99.90
55004;DHT22;40900;52.710;6.438;2023-05-17T04:45:33;8.70;99.90
55004;DHT22;40900;52.710;6.438;2023-05-17T04:47:59;8.80;99.90
55004;DHT22;40900;52.710;6.438;2023-05-17T04:50:26;8.80;99.90
55004;DHT22;40900;52.710;6.438;2023-05-17T04:52:51;8.90;99.90
55004;DHT22;40900;52.710;6.438;2023-05-17T04:55:17;8.90;99.90
55004;DHT22;40900;52.710;6.438;2023-05-17T04:57:43;8.90;99.90
55004;DHT22;40900;52.710;6.438;2023-05-17T05:00:09;9.00;99.90
55004;DHT22;40900;52.710;6.438;2023-05-17T05:02:35;9.10;99.90
55004;DHT22;40900;52.710;6.438;2023-05-17T05:05:02;9.10;99.90
55004;DHT22;40900;52.710;6.438;2023-05-17T05:07:29;9.10;99.90
55004;DHT22;40900;52.710;6.438;2023-05-17T05:09:55;9.20;99.90
55004;DHT22;40900;52.710;6.438;2023-05-17T05:12:21;9.20;99.90
55004;DHT22;40900;52.710;6.438;2023-05-17T05:14:47;9.30;99.90
55004;DHT22;40900;52.710;6.438;2023-05-17T05:17:12;9.20;99.90
55004;DHT22;40900;52.710;6.438;2023-05-17T05:19:38;9.20;99.90
55004;DHT22;40900;52.710;6.438;2023-05-17T05:22:04;9.30;99.90
55004;DHT22;40900;52.710;6.438;2023-05-17T05:24:30;9.30;99.90
55004;DHT22;40900;52.710;6.438;2023-05-17T05:26:55;9.30;99.90
55004;DHT22;40900;52.710;6.438;2023-05-17T05:29:21;9.30;99.90
55004;DHT22;40900;52.710;6.438;2023-05-17T05:31:47;9.40;99.90
55004;DHT22;40900;52.710;6.438;2023-05-17T05:34:12;9.40;99.90
55004;DHT22;40900;52.710;6.438;2023-05-17T05:36:38;9.50;99.90
55004;DHT22;40900;52.710;6.438;2023-05-17T05:39:04;9.50;99.90
55004;DHT22;40900;52.710;6.438;2023-05-17T05:41:29;9.70;99.90
55004;DHT22;40900;52.710;6.438;2023-05-17T05:43:55;9.70;99.90
55004;DHT22;40900;52.710;6.438;2023-05-17T05:46:21;9.70;99.90
55004;DHT22;40900;52.710;6.438;2023-05-17T05:48:47;9.90;99.90
55004;DHT22;40900;52.710;6.438;2023-05-17T05:51:13;9.90;99.90
55004;DHT22;40900;52.710;6.438;2023-05-17T05:53:38;10.00;99.90
55004;DHT22;40900;52.710;6.438;2023-05-17T05:56:04;9.80;99.90
55004;DHT22;40900;52.710;6.438;2023-05-17T05:58:31;10.10;99.90
55004;DHT22;40900;52.710;6.438;2023-05-17T06:00:57;10.10;99.90
55004;DHT22;40900;52.710;6.438;2023-05-17T06:03:23;10.20;99.90
55004;DHT22;40900;52.710;6.438;2023-05-17T06:05:49;10.20;99.90
55004;DHT22;40900;52.710;6.438;2023-05-17T06:08:15;10.40;99.90
55004;DHT22;40900;52.710;6.438;2023-05-17T06:10:40;10.50;99.90
55004;DHT22;40900;52.710;6.438;2023-05-17T06:13:06;10.50;99.90
55004;DHT22;40900;52.710;6.438;2023-05-17T06:15:32;10.70;99.90
55004;DHT22;40900;52.710;6.438;2023-05-17T06:17:58;10.70;99.90
55004;DHT22;40900;52.710;6.438;2023-05-17T06:20:24;10.70;99.90
55004;DHT22;40900;52.710;6.438;2023-05-17T06:22:49;10.70;99.90
55004;DHT22;40900;52.710;6.438;2023-05-17T06:25:15;10.80;99.90
55004;DHT22;40900;52.710;6.438;2023-05-17T06:27:41;10.90;99.90
55004;DHT22;40900;52.710;6.438;2023-05-17T06:30:08;11.00;99.90
55004;DHT22;40900;52.710;6.438;2023-05-17T06:32:35;11.00;99.90
55004;DHT22;40900;52.710;6.438;2023-05-17T06:35:01;11.10;99.90
55004;DHT22;40900;52.710;6.438;2023-05-17T06:37:27;11.10;99.90
55004;DHT22;40900;52.710;6.438;2023-05-17T06:40:03;11.10;99.90
55004;DHT22;40900;52.710;6.438;2023-05-17T06:42:30;11.20;99.90
55004;DHT22;40900;52.710;6.438;2023-05-17T06:44:56;11.20;99.90
55004;DHT22;40900;52.710;6.438;2023-05-17T06:47:22;11.30;99.90
55004;DHT22;40900;52.710;6.438;2023-05-17T06:49:48;11.40;99.90
55004;DHT22;40900;52.710;6.438;2023-05-17T06:52:13;11.50;99.90
55004;DHT22;40900;52.710;6.438;2023-05-17T06:54:39;11.60;99.90
55004;DHT22;40900;52.710;6.438;2023-05-17T06:57:05;11.70;99.90
55004;DHT22;40900;52.710;6.438;2023-05-17T06:59:30;11.60;99.90
55004;DHT22;40900;52.710;6.438;2023-05-17T07:01:56;11.50;99.90
55004;DHT22;40900;52.710;6.438;2023-05-17T07:04:25;11.50;99.90
55004;DHT22;40900;52.710;6.438;2023-05-17T07:06:50;11.50;99.90
55004;DHT22;40900;52.710;6.438;2023-05-17T07:09:17;11.60;99.90
55004;DHT22;40900;52.710;6.438;2023-05-17T07:11:43;11.70;99.90
55004;DHT22;40900;52.710;6.438;2023-05-17T07:14:08;11.80;99.90
55004;DHT22;40900;52.710;6.438;2023-05-17T07:16:34;12.00;99.90
55004;DHT22;40900;52.710;6.438;2023-05-17T07:19:00;12.00;99.90
55004;DHT22;40900;52.710;6.438;2023-05-17T07:21:26;11.90;99.90
55004;DHT22;40900;52.710;6.438;2023-05-17T07:23:52;12.00;99.90
55004;DHT22;40900;52.710;6.438;2023-05-17T07:26:18;11.90;99.90
55004;DHT22;40900;52.710;6.438;2023-05-17T07:28:44;11.80;99.90
55004;DHT22;40900;52.710;6.438;2023-05-17T07:31:10;11.90;99.90
55004;DHT22;40900;52.710;6.438;2023-05-17T07:33:37;12.10;99.90
55004;DHT22;40900;52.710;6.438;2023-05-17T07:36:03;12.20;99.90
55004;DHT22;40900;52.710;6.438;2023-05-17T07:38:29;12.40;99.90
55004;DHT22;40900;52.710;6.438;2023-05-17T07:40:55;12.60;99.90
55004;DHT22;40900;52.710;6.438;2023-05-17T07:43:20;13.00;99.90
55004;DHT22;40900;52.710;6.438;2023-05-17T07:45:46;13.30;99.90
55004;DHT22;40900;52.710;6.438;2023-05-17T07:48:12;13.60;99.90
55004;DHT22;40900;52.710;6.438;2023-05-17T07:50:39;13.60;99.90
55004;DHT22;40900;52.710;6.438;2023-05-17T07:53:05;14.30;99.90
55004;DHT22;40900;52.710;6.438;2023-05-17T07:55:31;14.40;99.70
55004;DHT22;40900;52.710;6.438;2023-05-17T07:57:56;14.20;99.20
55004;DHT22;40900;52.710;6.438;2023-05-17T08:00:23;14.40;99.60
55004;DHT22;40900;52.710;6.438;2023-05-17T08:02:49;14.60;99.30
55004;DHT22;40900;52.710;6.438;2023-05-17T08:05:14;14.90;99.00
55004;DHT22;40900;52.710;6.438;2023-05-17T08:07:40;15.20;98.60
55004;DHT22;40900;52.710;6.438;2023-05-17T08:10:06;15.20;97.20
55004;DHT22;40900;52.710;6.438;2023-05-17T08:12:32;15.20;98.00
55004;DHT22;40900;52.710;6.438;2023-05-17T08:14:58;15.00;98.00
55004;DHT22;40900;52.710;6.438;2023-05-17T08:17:23;14.80;98.70
55004;DHT22;40900;52.710;6.438;2023-05-17T08:19:49;14.90;99.80
55004;DHT22;40900;52.710;6.438;2023-05-17T08:22:15;14.70;98.40
55004;DHT22;40900;52.710;6.438;2023-05-17T08:24:41;14.50;99.00
55004;DHT22;40900;52.710;6.438;2023-05-17T08:27:09;14.30;98.50
55004;DHT22;40900;52.710;6.438;2023-05-17T08:29:35;14.40;99.00
55004;DHT22;40900;52.710;6.438;2023-05-17T08:32:02;14.70;98.40
55004;DHT22;40900;52.710;6.438;2023-05-17T08:34:27;14.80;97.90
55004;DHT22;40900;52.710;6.438;2023-05-17T08:36:53;14.70;98.30
55004;DHT22;40900;52.710;6.438;2023-05-17T08:39:19;14.70;98.50
55004;DHT22;40900;52.710;6.438;2023-05-17T08:41:48;14.60;98.90
55004;DHT22;40900;52.710;6.438;2023-05-17T08:44:15;14.30;98.70
55004;DHT22;40900;52.710;6.438;2023-05-17T08:46:43;14.10;98.40
55004;DHT22;40900;52.710;6.438;2023-05-17T08:49:27;13.80;98.80
55004;DHT22;40900;52.710;6.438;2023-05-17T08:51:56;13.80;98.70
55004;DHT22;40900;52.710;6.438;2023-05-17T08:54:23;13.80;99.10
55004;DHT22;40900;52.710;6.438;2023-05-17T08:56:51;13.90;98.50
55004;DHT22;40900;52.710;6.438;2023-05-17T08:59:18;14.00;99.10
55004;DHT22;40900;52.710;6.438;2023-05-17T09:01:47;14.10;99.10
55004;DHT22;40900;52.710;6.438;2023-05-17T09:04:16;14.40;98.70
55004;DHT22;40900;52.710;6.438;2023-05-17T09:06:42;14.30;98.20
55004;DHT22;40900;52.710;6.438;2023-05-17T09:09:09;14.60;98.10
55004;DHT22;40900;52.710;6.438;2023-05-17T09:11:36;15.30;97.50
55004;DHT22;40900;52.710;6.438;2023-05-17T09:14:05;16.10;96.40
55004;DHT22;40900;52.710;6.438;2023-05-17T09:16:32;17.10;95.70
55004;DHT22;40900;52.710;6.438;2023-05-17T09:19:00;17.60;94.30
55004;DHT22;40900;52.710;6.438;2023-05-17T09:21:27;16.90;94.70
55004;DHT22;40900;52.710;6.438;2023-05-17T09:23:54;17.00;95.10
55004;DHT22;40900;52.710;6.438;2023-05-17T09:26:20;16.90;94.90
55004;DHT22;40900;52.710;6.438;2023-05-17T09:28:48;16.80;95.20
55004;DHT22;40900;52.710;6.438;2023-05-17T09:31:16;16.80;94.80
55004;DHT22;40900;52.710;6.438;2023-05-17T09:33:46;17.00;95.10
55004;DHT22;40900;52.710;6.438;2023-05-17T09:36:16;16.80;95.30
55004;DHT22;40900;52.710;6.438;2023-05-17T09:38:53;17.30;95.10
55004;DHT22;40900;52.710;6.438;2023-05-17T09:41:19;17.70;93.70
55004;DHT22;40900;52.710;6.438;2023-05-17T09:43:46;17.70;94.00
55004;DHT22;40900;52.710;6.438;2023-05-17T09:46:12;17.30;94.20
55004;DHT22;40900;52.710;6.438;2023-05-17T09:48:40;17.30;93.90
55004;DHT22;40900;52.710;6.438;2023-05-17T09:51:08;17.00;94.50
55004;DHT22;40900;52.710;6.438;2023-05-17T09:53:34;16.70;94.00
55004;DHT22;40900;52.710;6.438;2023-05-17T09:56:05;16.40;94.10
55004;DHT22;40900;52.710;6.438;2023-05-17T09:58:32;16.20;94.00
55004;DHT22;40900;52.710;6.438;2023-05-17T10:01:01;15.80;94.30
55004;DHT22;40900;52.710;6.438;2023-05-17T10:03:31;15.90;94.30
55004;DHT22;40900;52.710;6.438;2023-05-17T10:05:58;16.00;95.10
55004;DHT22;40900;52.710;6.438;2023-05-17T10:08:25;16.00;94.70
55004;DHT22;40900;52.710;6.438;2023-05-17T10:10:55;16.10;94.50
55004;DHT22;40900;52.710;6.438;2023-05-17T10:13:28;16.00;95.20
55004;DHT22;40900;52.710;6.438;2023-05-17T10:15:55;16.00;95.90
55004;DHT22;40900;52.710;6.438;2023-05-17T10:18:22;15.80;96.20
55004;DHT22;40900;52.710;6.438;2023-05-17T10:20:49;15.90;96.50
55004;DHT22;40900;52.710;6.438;2023-05-17T10:23:16;15.80;96.70
55004;DHT22;40900;52.710;6.438;2023-05-17T10:25:43;15.70;96.20
55004;DHT22;40900;52.710;6.438;2023-05-17T10:28:09;15.90;95.90
55004;DHT22;40900;52.710;6.438;2023-05-17T10:30:36;16.40;95.80
55004;DHT22;40900;52.710;6.438;2023-05-17T10:33:02;16.30;95.40
55004;DHT22;40900;52.710;6.438;2023-05-17T10:35:29;16.20;95.30
55004;DHT22;40900;52.710;6.438;2023-05-17T10:37:57;16.10;95.40
55004;DHT22;40900;52.710;6.438;2023-05-17T10:40:23;16.00;96.00
55004;DHT22;40900;52.710;6.438;2023-05-17T10:42:51;16.10;96.10
55004;DHT22;40900;52.710;6.438;2023-05-17T10:45:20;16.50;96.40
55004;DHT22;40900;52.710;6.438;2023-05-17T10:47:46;16.40;96.50
55004;DHT22;40900;52.710;6.438;2023-05-17T10:50:21;16.50;96.10
55004;DHT22;40900;52.710;6.438;2023-05-17T10:52:48;16.90;96.10
55004;DHT22;40900;52.710;6.438;2023-05-17T10:55:22;17.00;95.30
55004;DHT22;40900;52.710;6.438;2023-05-17T10:58:17;17.00;94.90
55004;DHT22;40900;52.710;6.438;2023-05-17T11:00:49;16.80;94.60
55004;DHT22;40900;52.710;6.438;2023-05-17T11:03:26;16.50;94.10
55004;DHT22;40900;52.710;6.438;2023-05-17T11:06:22;16.40;94.90
55004;DHT22;40900;52.710;6.438;2023-05-17T11:09:07;16.60;94.50
55004;DHT22;40900;52.710;6.438;2023-05-17T11:12:05;17.10;95.40
55004;DHT22;40900;52.710;6.438;2023-05-17T11:17:16;17.40;94.80
55004;DHT22;40900;52.710;6.438;2023-05-17T11:22:25;16.90;94.10
55004;DHT22;40900;52.710;6.438;2023-05-17T11:24:53;16.70;94.00
55004;DHT22;40900;52.710;6.438;2023-05-17T11:27:20;16.80;93.90
55004;DHT22;40900;52.710;6.438;2023-05-17T11:29:52;16.80;93.80
55004;DHT22;40900;52.710;6.438;2023-05-17T11:32:18;16.70;94.40
55004;DHT22;40900;52.710;6.438;2023-05-17T11:34:51;16.50;94.50
55004;DHT22;40900;52.710;6.438;2023-05-17T11:37:25;16.30;93.70
55004;DHT22;40900;52.710;6.438;2023-05-17T11:40:05;16.20;93.70
55004;DHT22;40900;52.710;6.438;2023-05-17T11:42:34;16.20;94.60
55004;DHT22;40900;52.710;6.438;2023-05-17T11:45:02;16.10;94.60
55004;DHT22;40900;52.710;6.438;2023-05-17T11:47:28;16.40;94.60
55004;DHT22;40900;52.710;6.438;2023-05-17T11:49:55;16.60;94.00
55004;DHT22;40900;52.710;6.438;2023-05-17T11:52:24;16.70;94.40
55004;DHT22;40900;52.710;6.438;2023-05-17T11:54:51;16.40;94.60
55004;DHT22;40900;52.710;6.438;2023-05-17T11:57:18;16.30;94.20
55004;DHT22;40900;52.710;6.438;2023-05-17T11:59:46;16.10;94.10
55004;DHT22;40900;52.710;6.438;2023-05-17T12:02:33;16.20;94.20
55004;DHT22;40900;52.710;6.438;2023-05-17T12:04:59;16.20;94.00
55004;DHT22;40900;52.710;6.438;2023-05-17T12:07:25;16.00;93.60
55004;DHT22;40900;52.710;6.438;2023-05-17T12:09:51;15.80;93.10
55004;DHT22;40900;52.710;6.438;2023-05-17T12:12:18;15.80;93.50
55004;DHT22;40900;52.710;6.438;2023-05-17T12:14:46;16.00;93.90
55004;DHT22;40900;52.710;6.438;2023-05-17T12:17:22;16.10;94.20
55004;DHT22;40900;52.710;6.438;2023-05-17T12:19:53;16.40;94.10
55004;DHT22;40900;52.710;6.438;2023-05-17T12:22:19;16.60;93.50
55004;DHT22;40900;52.710;6.438;2023-05-17T12:24:45;16.70;93.70
55004;DHT22;40900;52.710;6.438;2023-05-17T12:27:10;16.50;92.70
55004;DHT22;40900;52.710;6.438;2023-05-17T12:29:37;16.30;92.90
55004;DHT22;40900;52.710;6.438;2023-05-17T12:32:04;16.50;93.00
55004;DHT22;40900;52.710;6.438;2023-05-17T12:34:31;16.60;93.00
55004;DHT22;40900;52.710;6.438;2023-05-17T12:36:57;16.60;93.00
55004;DHT22;40900;52.710;6.438;2023-05-17T12:39:23;16.60;93.00
55004;DHT22;40900;52.710;6.438;2023-05-17T12:41:50;16.60;92.80
55004;DHT22;40900;52.710;6.438;2023-05-17T12:44:17;16.50;93.20
55004;DHT22;40900;52.710;6.438;2023-05-17T12:46:46;16.50;92.90
55004;DHT22;40900;52.710;6.438;2023-05-17T12:49:18;16.40;93.70
55004;DHT22;40900;52.710;6.438;2023-05-17T12:51:47;16.30;93.00
55004;DHT22;40900;52.710;6.438;2023-05-17T12:54:25;16.50;93.10
55004;DHT22;40900;52.710;6.438;2023-05-17T12:56:51;16.40;94.10
55004;DHT22;40900;52.710;6.438;2023-05-17T12:59:17;16.40;93.80
55004;DHT22;40900;52.710;6.438;2023-05-17T13:01:50;16.60;93.90
55004;DHT22;40900;52.710;6.438;2023-05-17T13:04:18;16.60;93.40
55004;DHT22;40900;52.710;6.438;2023-05-17T13:06:48;16.80;94.00
55004;DHT22;40900;52.710;6.438;2023-05-17T13:09:15;16.80;93.40
55004;DHT22;40900;52.710;6.438;2023-05-17T13:11:52;17.00;93.30
55004;DHT22;40900;52.710;6.438;2023-05-17T13:14:43;17.00;93.10
55004;DHT22;40900;52.710;6.438;2023-05-17T13:19:39;17.10;93.30
55004;DHT22;40900;52.710;6.438;2023-05-17T13:22:06;17.10;93.60
55004;DHT22;40900;52.710;6.438;2023-05-17T13:24:36;16.90;93.20
55004;DHT22;40900;52.710;6.438;2023-05-17T13:27:03;16.80;92.90
55004;DHT22;40900;52.710;6.438;2023-05-17T13:29:29;16.80;93.30
55004;DHT22;40900;52.710;6.438;2023-05-17T13:31:56;16.70;93.20
55004;DHT22;40900;52.710;6.438;2023-05-17T13:34:21;16.60;93.50
55004;DHT22;40900;52.710;6.438;2023-05-17T13:36:47;16.40;93.30
55004;DHT22;40900;52.710;6.438;2023-05-17T13:39:15;16.40;93.80
55004;DHT22;40900;52.710;6.438;2023-05-17T13:41:41;16.10;94.00
55004;DHT22;40900;52.710;6.438;2023-05-17T13:44:07;16.10;94.10
55004;DHT22;40900;52.710;6.438;2023-05-17T13:46:33;16.20;94.60
55004;DHT22;40900;52.710;6.438;2023-05-17T13:48:59;16.40;94.60
55004;DHT22;40900;52.710;6.438;2023-05-17T13:51:27;16.40;94.00
55004;DHT22;40900;52.710;6.438;2023-05-17T13:53:52;16.40;94.50
55004;DHT22;40900;52.710;6.438;2023-05-17T13:56:18;16.40;94.10
55004;DHT22;40900;52.710;6.438;2023-05-17T13:58:44;16.40;94.30
55004;DHT22;40900;52.710;6.438;2023-05-17T14:01:10;16.30;93.90
55004;DHT22;40900;52.710;6.438;2023-05-17T14:03:35;16.10;93.50
55004;DHT22;40900;52.710;6.438;2023-05-17T14:06:04;16.20;93.50
55004;DHT22;40900;52.710;6.438;2023-05-17T14:08:31;16.30;93.30
55004;DHT22;40900;52.710;6.438;2023-05-17T14:10:56;16.40;93.80
55004;DHT22;40900;52.710;6.438;2023-05-17T14:13:22;16.40;93.40
55004;DHT22;40900;52.710;6.438;2023-05-17T14:15:48;16.50;94.00
55004;DHT22;40900;52.710;6.438;2023-05-17T14:18:13;16.60;93.80
55004;DHT22;40900;52.710;6.438;2023-05-17T14:20:39;16.50;93.50
55004;DHT22;40900;52.710;6.438;2023-05-17T14:23:05;15.90;94.00
55004;DHT22;40900;52.710;6.438;2023-05-17T14:25:31;15.80;94.30
55004;DHT22;40900;52.710;6.438;2023-05-17T14:27:57;15.60;94.80
55004;DHT22;40900;52.710;6.438;2023-05-17T14:30:23;15.50;94.50
55004;DHT22;40900;52.710;6.438;2023-05-17T14:32:49;15.60;94.30
55004;DHT22;40900;52.710;6.438;2023-05-17T14:35:15;15.70;94.20
55004;DHT22;40900;52.710;6.438;2023-05-17T14:37:42;15.60;94.40
55004;DHT22;40900;52.710;6.438;2023-05-17T14:40:08;15.50;93.80
55004;DHT22;40900;52.710;6.438;2023-05-17T14:42:34;15.40;94.30
55004;DHT22;40900;52.710;6.438;2023-05-17T14:44:59;15.50;94.40
55004;DHT22;40900;52.710;6.438;2023-05-17T14:47:25;15.50;94.10
55004;DHT22;40900;52.710;6.438;2023-05-17T14:49:51;15.50;94.00
55004;DHT22;40900;52.710;6.438;2023-05-17T14:52:17;15.60;94.40
55004;DHT22;40900;52.710;6.438;2023-05-17T14:54:43;15.70;94.10
55004;DHT22;40900;52.710;6.438;2023-05-17T14:57:09;15.80;94.10
55004;DHT22;40900;52.710;6.438;2023-05-17T14:59:36;16.00;94.20
55004;DHT22;40900;52.710;6.438;2023-05-17T15:02:03;16.20;94.00
55004;DHT22;40900;52.710;6.438;2023-05-17T15:04:29;16.10;93.60
55004;DHT22;40900;52.710;6.438;2023-05-17T15:06:57;15.80;93.50
55004;DHT22;40900;52.710;6.438;2023-05-17T15:09:23;15.60;93.60
55004;DHT22;40900;52.710;6.438;2023-05-17T15:11:49;15.30;94.20
55004;DHT22;40900;52.710;6.438;2023-05-17T15:14:16;15.30;94.60
55004;DHT22;40900;52.710;6.438;2023-05-17T15:16:46;15.40;94.50
55004;DHT22;40900;52.710;6.438;2023-05-17T15:19:13;15.50;94.50
55004;DHT22;40900;52.710;6.438;2023-05-17T15:21:40;15.80;94.20
55004;DHT22;40900;52.710;6.438;2023-05-17T15:24:06;15.90;94.50
55004;DHT22;40900;52.710;6.438;2023-05-17T15:26:32;15.90;93.80
55004;DHT22;40900;52.710;6.438;2023-05-17T15:28:58;15.80;93.40
55004;DHT22;40900;52.710;6.438;2023-05-17T15:31:23;15.80;93.50
55004;DHT22;40900;52.710;6.438;2023-05-17T15:33:50;15.80;93.60
55004;DHT22;40900;52.710;6.438;2023-05-17T15:36:16;15.90;93.70
55004;DHT22;40900;52.710;6.438;2023-05-17T15:38:41;15.80;93.90
55004;DHT22;40900;52.710;6.438;2023-05-17T15:41:11;16.00;93.60
55004;DHT22;40900;52.710;6.438;2023-05-17T15:43:38;16.00;93.40
55004;DHT22;40900;52.710;6.438;2023-05-17T15:46:04;16.10;93.30